createdAt,value
2019-05-15T00:02:43.434Z,4.56
2019-05-15T00:08:48.154Z,4.49
2019-05-15T00:14:52.788Z,4.36
2019-05-15T00:20:59.479Z,4.30
2019-05-15T00:27:03.823Z,4.25
2019-05-15T00:33:09.283Z,4.02
2019-05-15T00:39:13.959Z,4.03
2019-05-15T00:45:19.533Z,3.80
2019-05-15T00:51:24.101Z,3.28
2019-05-15T00:57:28.621Z,3.43
2019-05-15T01:03:33.163Z,3.36
2019-05-15T01:09:38.455Z,3.40
2019-05-15T01:15:43.227Z,3.34
2019-05-15T01:21:48.232Z,3.53
2019-05-15T01:27:53.180Z,3.49
2019-05-15T01:33:58.381Z,3.34
2019-05-15T01:40:03.061Z,3.27
2019-05-15T01:46:08.365Z,3.34
2019-05-15T01:52:13.263Z,3.34
2019-05-15T01:58:18.612Z,3.37
2019-05-15T02:04:23.570Z,3.24
2019-05-15T02:10:29.163Z,3.05
2019-05-15T02:16:34.092Z,2.94
2019-05-15T02:22:42.531Z,2.90
2019-05-15T02:28:45.149Z,2.83
2019-05-15T02:34:50.183Z,2.69
2019-05-15T02:40:54.962Z,2.69
2019-05-15T02:47:01.178Z,2.72
2019-05-15T02:53:09.493Z,2.71
2019-05-15T02:59:12.119Z,2.98
2019-05-15T03:05:19.374Z,2.61
2019-05-15T03:11:23.125Z,2.54
2019-05-15T03:17:29.725Z,2.40
2019-05-15T03:23:34.064Z,2.44
2019-05-15T03:29:40.354Z,2.65
2019-05-15T03:35:45.243Z,2.72
2019-05-15T03:41:49.900Z,2.65
2019-05-15T03:47:54.514Z,2.64
2019-05-15T03:54:00.348Z,2.64
2019-05-15T04:00:09.599Z,2.73
2019-05-15T04:06:13.951Z,2.62
2019-05-15T04:12:19.633Z,2.79
2019-05-15T04:18:24.462Z,2.96
2019-05-15T04:24:31.407Z,3.22
2019-05-15T04:30:38.934Z,3.40
2019-05-15T04:36:44.836Z,3.66
2019-05-15T04:42:49.966Z,3.85
2019-05-15T04:48:54.641Z,4.11
2019-05-15T04:54:59.864Z,4.40
2019-05-15T05:01:08.975Z,4.68
2019-05-15T05:07:12.324Z,4.99
2019-05-15T05:13:19.432Z,5.16
2019-05-15T05:19:23.288Z,5.34
2019-05-15T05:25:28.054Z,5.60
2019-05-15T05:31:32.665Z,5.65
2019-05-15T05:37:38.899Z,5.89
2019-05-15T05:43:44.137Z,6.00
2019-05-15T05:49:48.936Z,6.20
2019-05-15T05:55:58.048Z,6.44
2019-05-15T06:02:03.037Z,6.51
2019-05-15T06:08:08.896Z,6.67
2019-05-15T06:14:13.438Z,6.60
2019-05-15T06:20:18.590Z,6.98
2019-05-15T06:26:23.274Z,7.38
2019-05-15T06:32:28.909Z,7.90
2019-05-15T06:38:33.713Z,8.44
2019-05-15T06:44:38.790Z,8.61
2019-05-15T06:50:43.760Z,8.72
2019-05-15T06:56:49.284Z,9.08
2019-05-15T07:02:54.069Z,9.57
2019-05-15T07:08:58.954Z,9.90
2019-05-15T07:15:05.113Z,10.41
2019-05-15T07:21:10.613Z,10.77
2019-05-15T07:27:15.364Z,11.34
2019-05-15T07:33:35.317Z,11.24
2019-05-15T07:39:28.706Z,11.79
2019-05-15T07:45:32.584Z,12.34
2019-05-15T07:51:38.179Z,12.95
2019-05-15T07:57:42.866Z,13.57
2019-05-15T08:03:58.678Z,13.70
2019-05-15T08:09:53.806Z,13.88
2019-05-15T08:15:58.397Z,14.37
2019-05-15T08:22:08.743Z,14.42
2019-05-15T08:28:12.593Z,14.16
2019-05-15T08:34:19.489Z,13.73
2019-05-15T08:40:23.770Z,14.30
2019-05-15T08:46:28.412Z,14.90
2019-05-15T08:52:33.050Z,14.82
2019-05-15T08:58:39.057Z,14.87
2019-05-15T09:04:43.624Z,14.36
2019-05-15T09:10:50.220Z,14.61
2019-05-15T09:16:54.786Z,14.98
2019-05-15T09:22:59.343Z,14.85
2019-05-15T09:29:09.150Z,15.10
2019-05-15T09:35:18.598Z,15.88
2019-05-15T09:41:28.731Z,16.25
2019-05-15T09:47:33.378Z,16.95
2019-05-15T09:53:39.449Z,16.65
2019-05-15T09:59:44.218Z,17.28
2019-05-15T10:05:51.681Z,17.17
2019-05-15T10:11:56.250Z,17.20
2019-05-15T10:18:04.064Z,17.81
2019-05-15T10:24:13.516Z,17.98
2019-05-15T10:30:19.161Z,17.66
2019-05-15T10:36:23.765Z,17.77
2019-05-15T10:42:29.393Z,18.60
2019-05-15T10:48:34.008Z,18.31
2019-05-15T10:54:39.414Z,18.51
2019-05-15T11:00:48.988Z,18.43
2019-05-15T11:06:53.906Z,17.97
2019-05-15T11:13:00.997Z,17.36
2019-05-15T11:19:07.899Z,17.67
2019-05-15T11:25:12.436Z,17.47
2019-05-15T11:31:17.075Z,17.09
2019-05-15T11:37:21.807Z,16.80
2019-05-15T11:43:29.220Z,16.18
2019-05-15T11:49:38.263Z,16.62
2019-05-15T11:55:42.315Z,15.66
2019-05-15T12:01:48.921Z,16.23
2019-05-15T12:07:54.635Z,16.50
2019-05-15T12:13:59.729Z,16.06
2019-05-15T12:20:07.096Z,16.11
2019-05-15T12:26:12.512Z,16.00
2019-05-15T12:32:28.469Z,16.26
2019-05-15T12:38:23.483Z,16.23
2019-05-15T13:02:49.170Z,15.95
2019-05-15T13:08:53.885Z,16.24
2019-05-15T13:14:59.086Z,16.63
2019-05-15T13:21:03.860Z,16.88
2019-05-15T13:27:08.426Z,16.57
2019-05-15T13:33:12.983Z,16.73
2019-05-15T13:39:18.390Z,16.63
2019-05-15T13:45:23.436Z,16.62
2019-05-15T13:51:29.022Z,17.07
2019-05-15T13:57:33.813Z,16.95
2019-05-15T14:03:39.037Z,16.65
2019-05-15T14:09:44.743Z,16.38
2019-05-15T14:15:49.565Z,16.12
2019-05-15T14:21:54.199Z,15.92
2019-05-15T14:27:59.611Z,16.03
2019-05-15T14:34:04.553Z,16.06
2019-05-15T14:40:09.910Z,15.95
2019-05-15T14:46:14.729Z,16.03
2019-05-15T14:52:19.345Z,16.00
2019-05-15T14:58:23.905Z,16.06
2019-05-15T15:04:29.149Z,16.23
2019-05-15T15:10:33.789Z,15.96
2019-05-15T15:16:38.640Z,15.79
2019-05-15T15:22:43.296Z,15.36
2019-05-15T15:28:48.897Z,15.68
2019-05-15T15:34:53.739Z,15.61
2019-05-15T15:41:00.484Z,15.67
2019-05-15T15:47:04.789Z,15.83
2019-05-15T15:53:09.442Z,16.06
2019-05-15T15:59:14.010Z,16.24
2019-05-15T16:05:19.180Z,16.13
2019-05-15T16:11:23.946Z,15.89
2019-05-15T16:17:28.754Z,15.79
2019-05-15T16:23:33.286Z,15.69
2019-05-15T16:29:39.259Z,15.86
2019-05-15T16:35:44.084Z,15.46
2019-05-15T16:41:49.123Z,15.40
2019-05-15T16:47:53.804Z,15.13
2019-05-15T16:53:58.381Z,14.92
2019-05-15T17:00:03.008Z,14.85
2019-05-15T17:06:09.458Z,14.72
2019-05-15T17:12:14.097Z,14.67
2019-05-15T17:18:18.666Z,14.70
2019-05-15T17:24:23.253Z,14.59
2019-05-15T17:30:28.773Z,14.56
2019-05-15T17:36:33.466Z,14.51
2019-05-15T17:42:38.830Z,14.28
2019-05-15T17:48:43.937Z,14.24
2019-05-15T17:54:49.142Z,14.02
2019-05-15T18:00:54.021Z,14.12
2019-05-15T18:06:59.206Z,14.09
2019-05-15T18:13:03.915Z,13.87
2019-05-15T18:19:08.736Z,14.02
2019-05-15T18:25:13.436Z,13.88
2019-05-15T18:31:18.263Z,13.77
2019-05-15T18:37:22.928Z,13.70
2019-05-15T18:43:28.477Z,13.53
2019-05-15T18:49:33.207Z,13.56
2019-05-15T18:55:38.549Z,13.33
2019-05-15T19:01:43.372Z,13.39
2019-05-15T19:07:48.724Z,12.90
2019-05-15T19:13:53.523Z,12.73
2019-05-15T19:19:58.754Z,12.74
2019-05-15T19:26:03.485Z,12.53
2019-05-15T19:32:10.988Z,12.58
2019-05-15T19:38:14.530Z,12.56
2019-05-15T19:44:19.241Z,12.51
2019-05-15T19:50:23.946Z,12.53
2019-05-15T19:56:28.646Z,12.69
2019-05-15T20:02:33.207Z,12.48
2019-05-15T20:08:38.590Z,12.29
2019-05-15T20:14:43.311Z,12.06
2019-05-15T20:20:47.926Z,11.89
2019-05-15T20:26:52.492Z,12.13
2019-05-15T20:32:58.555Z,12.02
2019-05-15T20:39:03.535Z,12.03
2019-05-15T20:45:12.341Z,11.49
2019-05-15T20:51:15.586Z,11.49
2019-05-15T20:57:20.319Z,11.37
2019-05-15T21:03:25.015Z,11.51
2019-05-15T21:09:30.691Z,11.46
2019-05-15T21:15:35.567Z,11.41
2019-05-15T21:21:40.130Z,11.67
2019-05-15T21:27:44.713Z,11.24
2019-05-15T21:33:50.416Z,11.55
2019-05-15T21:39:55.118Z,11.37
2019-05-15T21:46:01.227Z,11.47
2019-05-15T21:52:05.827Z,11.62
2019-05-15T21:58:10.451Z,11.39
2019-05-15T22:04:15.203Z,11.26
2019-05-15T22:10:19.904Z,11.30
2019-05-15T22:16:24.874Z,11.50
2019-05-15T22:22:29.413Z,11.40
2019-05-15T22:28:34.044Z,11.38
2019-05-15T22:34:38.587Z,11.36
2019-05-15T22:40:43.686Z,11.53
2019-05-15T22:46:48.733Z,11.51
2019-05-15T22:52:53.592Z,11.31
2019-05-15T22:58:58.475Z,11.41
2019-05-15T23:05:03.337Z,10.93
2019-05-15T23:11:09.473Z,11.10
2019-05-15T23:17:14.372Z,11.04
2019-05-15T23:23:18.914Z,11.17
2019-05-15T23:29:25.386Z,10.98
2019-05-15T23:35:37.936Z,10.99
2019-05-15T23:41:36.127Z,10.86
2019-05-15T23:47:40.810Z,10.54
2019-05-15T23:53:45.342Z,10.55
2019-05-15T23:59:49.892Z,10.45
